Time;durP1;ratioP1;P1;durP2;ratioP2;P2;SDS_P1;SDS_P2;PMS_P1;PMS_P2;Temp;Humidity;BMP_temperature;BMP_pressure;BME280_temperature;BME280_humidity;BME280_pressure;Samples;Min_cycle;Max_cycle;Signal;HPM_P1;HPM_P2
2021/12/22 00:00:08;;;;;;;20.20;12.93;;;-2.50;99.90;;;;;;5031770;28;20217;-60
2021/12/22 00:02:36;;;;;;;19.73;11.73;;;-2.60;99.90;;;;;;5031838;28;20221;-60
2021/12/22 00:05:03;;;;;;;19.67;12.17;;;-2.50;99.90;;;;;;5031892;28;20674;-60
2021/12/22 00:07:31;;;;;;;19.33;12.80;;;-2.50;99.90;;;;;;5031582;28;20230;-60
2021/12/22 00:09:58;;;;;;;47.17;31.80;;;-2.50;99.90;;;;;;5031642;28;20744;-60
2021/12/22 00:12:24;;;;;;;21.80;14.80;;;-2.50;99.90;;;;;;5031358;28;20206;-60
2021/12/22 00:14:51;;;;;;;18.70;13.37;;;-2.50;99.90;;;;;;5031570;28;20751;-60
2021/12/22 00:17:18;;;;;;;20.43;12.87;;;-2.50;99.90;;;;;;5031618;28;20234;-59
2021/12/22 00:19:44;;;;;;;19.03;12.40;;;-2.50;99.90;;;;;;5031874;28;20206;-59
2021/12/22 00:22:11;;;;;;;19.93;12.10;;;-2.40;99.90;;;;;;5031530;28;20206;-60
2021/12/22 00:24:40;;;;;;;18.70;12.37;;;-2.50;99.90;;;;;;5031746;28;20234;-60
2021/12/22 00:27:07;;;;;;;19.73;12.47;;;-2.60;99.90;;;;;;5031362;28;20317;-59
2021/12/22 00:29:34;;;;;;;18.87;12.53;;;-2.50;99.90;;;;;;5031427;28;20688;-60
2021/12/22 00:32:10;;;;;;;20.87;13.30;;;-2.60;99.90;;;;;;5031593;28;20210;-59
2021/12/22 00:34:45;;;;;;;20.97;13.73;;;-2.60;99.90;;;;;;5032014;28;20712;-60
2021/12/22 00:37:12;;;;;;;19.80;12.80;;;-2.70;99.90;;;;;;5035078;28;20305;-60
2021/12/22 00:39:40;;;;;;;18.90;12.33;;;-2.80;99.90;;;;;;5035124;28;20210;-60
2021/12/22 00:42:08;;;;;;;18.30;12.07;;;-2.90;99.90;;;;;;5034599;28;20264;-60
2021/12/22 00:44:35;;;;;;;23.20;12.17;;;-3.00;99.90;;;;;;5035122;28;20229;-59
2021/12/22 00:47:02;;;;;;;28.33;15.63;;;-3.20;99.90;;;;;;5034980;28;20229;-59
2021/12/22 00:49:28;;;;;;;25.30;13.30;;;-3.20;99.90;;;;;;5035108;28;20210;-60
2021/12/22 00:51:55;;;;;;;25.53;14.00;;;-3.10;99.90;;;;;;5034602;28;20217;-59
2021/12/22 00:54:22;;;;;;;19.97;11.30;;;-3.10;99.90;;;;;;5034729;28;20215;-59
2021/12/22 00:56:50;;;;;;;21.33;13.00;;;-3.10;99.90;;;;;;5034667;28;20230;-59
2021/12/22 00:59:18;;;;;;;17.67;11.60;;;-3.20;99.90;;;;;;5034900;28;20206;-59
2021/12/22 01:01:44;;;;;;;18.40;11.27;;;-3.20;99.90;;;;;;5034502;28;20296;-59
2021/12/22 01:04:11;;;;;;;18.13;12.00;;;-3.20;99.90;;;;;;5034440;28;20767;-59
2021/12/22 01:06:38;;;;;;;17.47;11.57;;;-3.20;99.90;;;;;;5034391;28;20595;-59
2021/12/22 01:09:06;;;;;;;16.07;10.60;;;-3.30;99.90;;;;;;5034637;28;20680;-59
2021/12/22 01:11:32;;;;;;;14.13;10.63;;;-3.50;99.90;;;;;;5034681;28;20206;-59
2021/12/22 01:14:02;;;;;;;17.17;11.03;;;-3.70;99.90;;;;;;5034699;28;20261;-59
2021/12/22 01:16:29;;;;;;;16.03;11.30;;;-3.60;99.90;;;;;;5034311;28;20787;-59
2021/12/22 01:18:58;;;;;;;19.03;11.33;;;-3.50;99.90;;;;;;5034414;28;20213;-59
2021/12/22 01:21:33;;;;;;;20.40;11.30;;;-3.60;99.90;;;;;;5034018;28;20206;-59
2021/12/22 01:24:02;;;;;;;18.93;11.80;;;-3.60;99.90;;;;;;5034468;28;20320;-59
2021/12/22 01:26:31;;;;;;;17.87;11.67;;;-3.60;99.90;;;;;;5034342;28;20226;-59
2021/12/22 01:28:59;;;;;;;15.63;10.83;;;-3.60;99.90;;;;;;5034136;28;20218;-59
2021/12/22 01:31:27;;;;;;;22.10;11.83;;;-3.70;99.90;;;;;;5034502;28;20218;-59
2021/12/22 01:33:54;;;;;;;19.83;11.47;;;-3.80;99.90;;;;;;5034002;28;20205;-58
2021/12/22 01:36:21;;;;;;;16.60;11.03;;;-3.90;99.90;;;;;;5033856;28;20736;-59
2021/12/22 01:38:48;;;;;;;17.53;10.80;;;-3.90;99.90;;;;;;5034105;28;20206;-59
2021/12/22 01:41:15;;;;;;;16.77;11.03;;;-4.00;99.90;;;;;;5033830;28;20557;-58
2021/12/22 01:43:42;;;;;;;18.33;10.57;;;-4.10;99.90;;;;;;5033868;28;20230;-58
2021/12/22 01:46:32;;;;;;;15.67;10.67;;;-4.20;99.90;;;;;;5033141;28;20226;-59
2021/12/22 01:49:10;;;;;;;16.07;9.90;;;-4.20;99.90;;;;;;5033772;28;20232;-55
2021/12/22 01:51:45;;;;;;;16.73;10.90;;;-4.20;99.90;;;;;;5033639;28;20344;-55
2021/12/22 01:54:22;;;;;;;17.70;11.10;;;-4.10;99.90;;;;;;5033791;28;20594;-55
2021/12/22 01:56:50;;;;;;;16.07;10.47;;;-4.10;99.90;;;;;;5033639;28;20607;-55
2021/12/22 01:59:17;;;;;;;18.03;10.97;;;-4.00;99.90;;;;;;5033558;28;20576;-55
2021/12/22 02:01:44;;;;;;;17.53;11.17;;;-4.00;99.90;;;;;;5033722;28;20202;-55
2021/12/22 02:04:12;;;;;;;17.73;10.47;;;-4.10;99.90;;;;;;5033571;28;20272;-55
2021/12/22 02:06:40;;;;;;;14.67;10.27;;;-4.10;99.90;;;;;;5033541;28;20234;-55
2021/12/22 02:09:08;;;;;;;14.57;9.70;;;-4.10;99.90;;;;;;5033439;28;20233;-55
2021/12/22 02:11:35;;;;;;;16.57;10.47;;;-4.20;99.90;;;;;;5033210;28;20211;-55
2021/12/22 02:14:05;;;;;;;16.60;10.83;;;-4.40;99.90;;;;;;5033619;28;20210;-55
2021/12/22 02:16:36;;;;;;;16.23;10.00;;;-4.40;99.90;;;;;;5033321;28;20233;-55
2021/12/22 02:19:04;;;;;;;18.50;10.77;;;-4.30;99.90;;;;;;5033331;28;20214;-55
2021/12/22 02:21:38;;;;;;;19.90;10.23;;;-4.20;99.90;;;;;;5033231;28;20213;-56
2021/12/22 02:24:06;;;;;;;15.93;10.70;;;-4.10;99.90;;;;;;5033239;28;20226;-55
2021/12/22 02:26:37;;;;;;;16.17;9.90;;;-4.00;99.90;;;;;;5033706;28;20230;-55
2021/12/22 02:29:16;;;;;;;17.97;10.33;;;-4.00;99.90;;;;;;5034184;28;20229;-55
2021/12/22 02:31:49;;;;;;;15.70;10.47;;;-4.00;99.90;;;;;;5033124;28;20292;-55
2021/12/22 02:34:16;;;;;;;21.13;11.23;;;-4.00;99.90;;;;;;5032971;28;20213;-56
2021/12/22 02:36:45;;;;;;;18.43;11.50;;;-4.00;99.90;;;;;;5033346;28;20230;-55
2021/12/22 02:39:12;;;;;;;21.37;12.27;;;-3.90;99.90;;;;;;5032954;28;20210;-55
2021/12/22 02:41:39;;;;;;;18.50;10.70;;;-4.00;99.90;;;;;;5032712;28;20245;-55
2021/12/22 02:44:09;;;;;;;20.37;12.50;;;-3.90;99.90;;;;;;5032918;28;20261;-55
2021/12/22 02:46:37;;;;;;;16.97;10.43;;;-3.90;99.90;;;;;;5032669;28;20305;-55
2021/12/22 02:49:06;;;;;;;13.57;9.67;;;-3.90;99.90;;;;;;5032569;28;20682;-55
2021/12/22 02:51:34;;;;;;;15.40;10.33;;;-4.00;99.90;;;;;;5032589;28;20206;-55
2021/12/22 02:54:09;;;;;;;14.97;9.50;;;-4.00;99.90;;;;;;5032721;28;20206;-55
2021/12/22 02:56:49;;;;;;;14.73;9.70;;;-3.80;99.90;;;;;;5032671;28;20229;-56
2021/12/22 02:59:35;;;;;;;15.07;9.53;;;-3.80;99.90;;;;;;5032313;28;20217;-55
2021/12/22 03:02:30;;;;;;;15.90;9.67;;;-3.80;99.90;;;;;;5032536;28;20221;-55
2021/12/22 03:04:58;;;;;;;13.87;9.93;;;-3.80;99.90;;;;;;5032545;28;20223;-55
2021/12/22 03:07:29;;;;;;;14.97;10.00;;;-3.70;99.90;;;;;;5032299;28;20230;-55
2021/12/22 03:10:00;;;;;;;16.50;10.27;;;-3.60;99.90;;;;;;5032289;28;20203;-56
2021/12/22 03:12:30;;;;;;;16.77;10.30;;;-3.50;99.90;;;;;;5032446;28;20206;-55
2021/12/22 03:14:57;;;;;;;15.93;10.57;;;-3.50;99.90;;;;;;5032508;28;20207;-56
2021/12/22 03:17:24;;;;;;;13.87;9.93;;;-3.60;99.90;;;;;;5032331;28;20230;-56
2021/12/22 03:19:51;;;;;;;13.97;9.40;;;-3.60;99.90;;;;;;5032317;28;20214;-56
2021/12/22 03:22:20;;;;;;;13.90;10.17;;;-3.60;99.90;;;;;;5032056;28;20210;-56
2021/12/22 03:24:49;;;;;;;16.37;10.53;;;-3.70;99.90;;;;;;5032243;28;20230;-56
2021/12/22 03:27:18;;;;;;;13.13;9.40;;;-3.70;99.90;;;;;;5032122;28;20226;-55
2021/12/22 03:29:44;;;;;;;15.63;9.47;;;-3.80;99.90;;;;;;5032416;28;20214;-56
2021/12/22 03:32:11;;;;;;;14.10;9.47;;;-3.90;99.90;;;;;;5032079;28;20632;-56
2021/12/22 03:34:39;;;;;;;14.40;10.93;;;-4.00;99.90;;;;;;5032041;28;20261;-56
2021/12/22 03:37:07;;;;;;;18.07;10.90;;;-4.10;99.90;;;;;;5032077;28;20254;-56
2021/12/22 03:39:33;;;;;;;17.13;10.40;;;-4.10;99.90;;;;;;5032195;28;20206;-56
2021/12/22 03:42:00;;;;;;;16.80;10.40;;;-4.20;99.90;;;;;;5031874;28;20209;-57
2021/12/22 03:44:28;;;;;;;14.93;9.70;;;-4.20;99.90;;;;;;5032031;28;20226;-56
2021/12/22 03:46:56;;;;;;;15.17;9.47;;;-4.20;99.90;;;;;;5031754;28;20226;-56
2021/12/22 03:49:23;;;;;;;15.07;10.10;;;-4.20;99.90;;;;;;5031847;28;20213;-56
2021/12/22 03:51:49;;;;;;;14.17;9.77;;;-4.10;99.90;;;;;;5031827;28;20209;-56
2021/12/22 03:54:17;;;;;;;14.20;9.67;;;-4.00;99.90;;;;;;5032149;28;20569;-55
2021/12/22 03:56:43;;;;;;;15.03;9.90;;;-3.90;99.90;;;;;;5031985;28;20230;-56
2021/12/22 03:59:10;;;;;;;15.50;9.80;;;-3.80;99.90;;;;;;5031972;28;20210;-56
2021/12/22 04:01:38;;;;;;;17.50;9.90;;;-3.80;99.90;;;;;;5031433;28;20591;-55
2021/12/22 04:04:11;;;;;;;17.47;10.00;;;-3.70;99.90;;;;;;5032086;28;20576;-56
2021/12/22 04:06:39;;;;;;;15.43;9.97;;;-3.70;99.90;;;;;;5031621;28;20328;-56
2021/12/22 04:09:07;;;;;;;17.00;10.37;;;-3.70;99.90;;;;;;5031855;28;20222;-56
2021/12/22 04:11:34;;;;;;;16.03;10.30;;;-3.70;99.90;;;;;;5035256;28;20202;-56
2021/12/22 04:14:01;;;;;;;14.63;9.67;;;-3.70;99.90;;;;;;5035666;28;20210;-56
2021/12/22 04:16:27;;;;;;;15.97;10.00;;;-3.70;99.90;;;;;;5035326;28;20261;-56
2021/12/22 04:18:55;;;;;;;13.93;10.33;;;-3.70;99.90;;;;;;5035615;28;20202;-56
2021/12/22 04:21:22;;;;;;;12.63;9.43;;;-3.70;99.90;;;;;;5035253;28;20816;-57
2021/12/22 04:23:49;;;;;;;15.47;9.43;;;-3.70;99.90;;;;;;5035514;28;20206;-56
2021/12/22 04:26:16;;;;;;;15.87;10.17;;;-3.70;99.90;;;;;;5035426;28;20253;-56
2021/12/22 04:28:43;;;;;;;15.23;9.87;;;-3.70;99.90;;;;;;5035353;28;20301;-57
2021/12/22 04:31:10;;;;;;;15.60;10.53;;;-3.90;99.90;;;;;;5034963;28;20210;-57
2021/12/22 04:33:37;;;;;;;20.63;12.23;;;-4.00;99.90;;;;;;5035394;28;20214;-57
2021/12/22 04:36:06;;;;;;;23.93;13.17;;;-4.10;99.90;;;;;;5035245;28;20226;-57
2021/12/22 04:38:32;;;;;;;21.53;14.93;;;-4.20;99.90;;;;;;5035197;28;20202;-57
2021/12/22 04:40:59;;;;;;;20.27;13.80;;;-4.10;99.90;;;;;;5034992;28;20249;-55
2021/12/22 04:43:26;;;;;;;20.30;11.00;;;-4.10;99.90;;;;;;5035015;28;20253;-55
2021/12/22 04:45:52;;;;;;;16.67;11.30;;;-4.10;99.90;;;;;;5034976;28;20603;-55
2021/12/22 04:48:19;;;;;;;15.23;10.13;;;-4.20;99.90;;;;;;5035323;28;20206;-56
2021/12/22 04:50:46;;;;;;;13.53;9.13;;;-4.20;99.90;;;;;;5034859;28;20565;-55
2021/12/22 04:53:18;;;;;;;14.57;9.77;;;-4.20;99.90;;;;;;5034748;28;20555;-56
2021/12/22 04:55:45;;;;;;;14.10;10.00;;;-4.20;99.90;;;;;;5034809;28;20702;-56
2021/12/22 04:58:12;;;;;;;16.40;9.87;;;-4.20;99.90;;;;;;5034608;28;20670;-56
2021/12/22 05:00:40;;;;;;;22.90;11.27;;;-4.20;99.90;;;;;;5034829;28;20662;-55
2021/12/22 05:03:07;;;;;;;16.97;10.17;;;-4.20;99.90;;;;;;5035084;28;20674;-56
2021/12/22 05:05:37;;;;;;;15.13;10.60;;;-4.20;99.90;;;;;;5034508;28;20604;-61
2021/12/22 05:08:04;;;;;;;16.27;11.17;;;-4.30;99.90;;;;;;5034698;28;20712;-55
2021/12/22 05:10:32;;;;;;;19.63;12.70;;;-4.40;99.90;;;;;;5034504;28;20202;-55
2021/12/22 05:12:59;;;;;;;20.37;13.67;;;-4.40;99.90;;;;;;5034279;28;20209;-56
2021/12/22 05:15:35;;;;;;;21.77;13.63;;;-4.40;99.90;;;;;;5034508;28;20205;-56
2021/12/22 05:18:24;;;;;;;18.47;12.07;;;-4.30;99.90;;;;;;5034310;28;20678;-56
2021/12/22 05:20:52;;;;;;;18.33;11.43;;;-4.30;99.90;;;;;;5034204;28;20219;-56
2021/12/22 05:23:19;;;;;;;19.23;12.90;;;-4.40;99.90;;;;;;5034212;28;20257;-57
2021/12/22 05:25:47;;;;;;;17.60;11.63;;;-4.40;99.90;;;;;;5034255;28;20521;-56
2021/12/22 05:28:14;;;;;;;19.47;12.00;;;-4.50;99.90;;;;;;5034290;28;20217;-56
2021/12/22 05:30:43;;;;;;;15.60;11.27;;;-4.40;99.90;;;;;;5034160;28;20268;-56
2021/12/22 05:33:09;;;;;;;14.83;10.30;;;-4.40;99.90;;;;;;5034194;28;20268;-56
2021/12/22 05:35:36;;;;;;;17.03;10.90;;;-4.40;99.90;;;;;;5033814;28;20225;-56
2021/12/22 05:38:03;;;;;;;16.67;11.40;;;-4.30;99.90;;;;;;5034233;28;20631;-56
2021/12/22 05:40:30;;;;;;;16.53;11.07;;;-4.30;99.90;;;;;;5033976;28;20217;-56
2021/12/22 05:42:58;;;;;;;20.00;11.20;;;-4.20;99.90;;;;;;5033542;28;20574;-57
2021/12/22 05:45:25;;;;;;;17.17;10.90;;;-4.20;99.90;;;;;;5033860;28;20256;-56
2021/12/22 05:47:53;;;;;;;16.40;10.70;;;-4.30;99.90;;;;;;5033825;28;20206;-56
2021/12/22 05:50:20;;;;;;;19.10;11.30;;;-4.30;99.90;;;;;;5033631;28;20245;-56
2021/12/22 05:52:47;;;;;;;18.10;11.73;;;-4.40;99.90;;;;;;5033591;28;20210;-57
2021/12/22 05:55:13;;;;;;;16.43;10.50;;;-4.30;99.90;;;;;;5033963;28;20210;-57
2021/12/22 05:57:40;;;;;;;17.87;11.00;;;-4.30;99.90;;;;;;5033997;28;20234;-57
2021/12/22 06:00:09;;;;;;;16.03;11.30;;;-4.30;99.90;;;;;;5033577;28;20206;-56
2021/12/22 06:02:36;;;;;;;19.90;11.67;;;-4.30;99.90;;;;;;5033465;28;20218;-57
2021/12/22 06:05:03;;;;;;;16.87;11.50;;;-4.20;99.90;;;;;;5033438;28;20223;-57
2021/12/22 06:07:30;;;;;;;19.73;12.13;;;-4.20;99.90;;;;;;5033322;28;20242;-57
2021/12/22 06:09:56;;;;;;;20.07;11.37;;;-4.10;99.90;;;;;;5033707;28;20210;-56
2021/12/22 06:12:23;;;;;;;16.97;11.27;;;-4.10;99.90;;;;;;5033391;28;20210;-57
2021/12/22 06:14:50;;;;;;;17.87;10.87;;;-4.10;99.90;;;;;;5033600;28;20214;-57
2021/12/22 06:17:18;;;;;;;15.87;11.03;;;-4.10;99.90;;;;;;5033063;28;20226;-57
2021/12/22 06:19:45;;;;;;;17.83;10.43;;;-4.20;99.90;;;;;;5033364;28;20212;-57
2021/12/22 06:22:11;;;;;;;14.83;10.73;;;-4.20;99.90;;;;;;5033058;28;20206;-57
2021/12/22 06:24:38;;;;;;;17.83;10.93;;;-4.20;99.90;;;;;;5033111;28;20213;-57
2021/12/22 06:27:05;;;;;;;17.77;11.90;;;-4.30;99.90;;;;;;5033042;28;20276;-55
2021/12/22 06:29:32;;;;;;;17.77;12.23;;;-4.30;99.90;;;;;;5033376;28;20202;-56
2021/12/22 06:31:58;;;;;;;17.80;11.57;;;-4.30;99.90;;;;;;5032854;28;20211;-55
2021/12/22 06:34:26;;;;;;;19.10;12.00;;;-4.50;99.90;;;;;;5032642;28;20579;-55
2021/12/22 06:36:53;;;;;;;17.53;11.77;;;-4.40;99.90;;;;;;5032908;28;20226;-56
2021/12/22 06:39:20;;;;;;;18.90;11.77;;;-4.40;99.90;;;;;;5032788;28;20670;-56
2021/12/22 06:41:47;;;;;;;19.83;12.17;;;-4.40;99.90;;;;;;5032747;28;20202;-56
2021/12/22 06:44:14;;;;;;;19.33;12.00;;;-4.50;99.90;;;;;;5032721;28;20237;-56
2021/12/22 06:46:42;;;;;;;19.63;12.10;;;-4.50;99.90;;;;;;5032326;28;20317;-56
2021/12/22 06:49:09;;;;;;;18.67;11.80;;;-4.50;99.90;;;;;;5032835;28;20292;-56
2021/12/22 06:51:37;;;;;;;19.70;12.10;;;-4.60;99.90;;;;;;5032545;28;20210;-56
2021/12/22 06:54:05;;;;;;;16.57;11.23;;;-4.70;99.90;;;;;;5032670;28;20229;-56
2021/12/22 06:56:31;;;;;;;18.77;12.80;;;-4.70;99.90;;;;;;5032299;28;20586;-56
2021/12/22 06:59:00;;;;;;;18.17;13.33;;;-4.70;99.90;;;;;;5032290;28;20202;-57
2021/12/22 07:01:26;;;;;;;20.77;12.97;;;-4.70;99.90;;;;;;5032230;28;20214;-56
2021/12/22 07:03:53;;;;;;;23.50;13.30;;;-4.70;99.90;;;;;;5032578;28;20217;-56
2021/12/22 07:06:20;;;;;;;22.93;14.27;;;-4.70;99.90;;;;;;5032410;28;20720;-56
2021/12/22 07:08:48;;;;;;;25.30;13.67;;;-4.70;99.90;;;;;;5032413;28;20206;-64
2021/12/22 07:11:15;;;;;;;21.53;13.73;;;-4.70;99.90;;;;;;5032305;28;20206;-60
2021/12/22 07:13:41;;;;;;;24.33;13.93;;;-4.60;99.90;;;;;;5032165;28;20210;-59
2021/12/22 07:16:08;;;;;;;23.10;13.30;;;-4.60;99.90;;;;;;5032377;28;20226;-56
2021/12/22 07:18:35;;;;;;;21.40;13.97;;;-4.50;99.90;;;;;;5032284;28;20293;-57
2021/12/22 07:21:03;;;;;;;19.93;14.20;;;-4.40;99.90;;;;;;5032003;28;20209;-56
2021/12/22 07:23:30;;;;;;;22.97;14.40;;;-4.30;99.90;;;;;;5032153;28;20690;-56
2021/12/22 07:25:58;;;;;;;21.30;13.53;;;-4.30;99.90;;;;;;5031879;28;20238;-56
2021/12/22 07:28:25;;;;;;;21.83;14.10;;;-4.20;99.90;;;;;;5032103;28;20214;-56
2021/12/22 07:30:52;;;;;;;22.27;14.00;;;-4.20;99.90;;;;;;5032210;28;20210;-56
2021/12/22 07:33:19;;;;;;;20.73;13.77;;;-4.10;99.90;;;;;;5031808;28;20260;-56
2021/12/22 07:35:53;;;;;;;24.60;14.63;;;-4.10;99.90;;;;;;5031683;28;20603;-56
2021/12/22 07:38:31;;;;;;;26.30;14.60;;;-4.00;99.90;;;;;;5031864;28;20209;-56
2021/12/22 07:41:02;;;;;;;21.17;13.87;;;-3.90;99.90;;;;;;5032045;28;20221;-56
2021/12/22 07:43:29;;;;;;;24.80;15.00;;;-3.90;99.90;;;;;;5031999;28;20210;-56
2021/12/22 07:45:56;;;;;;;28.00;18.00;;;-3.80;99.90;;;;;;5041761;28;20451;-56
2021/12/22 07:48:24;;;;;;;26.57;17.07;;;-3.60;99.90;;;;;;5055743;28;20621;-56
2021/12/22 07:50:51;;;;;;;26.13;16.43;;;-3.40;99.90;;;;;;5055891;28;20259;-56
2021/12/22 07:53:18;;;;;;;24.47;14.93;;;-3.30;99.90;;;;;;5055345;28;20708;-56
2021/12/22 07:55:45;;;;;;;24.40;16.00;;;-3.20;99.90;;;;;;5055367;28;20221;-59
2021/12/22 07:58:13;;;;;;;23.23;14.97;;;-3.10;99.90;;;;;;5055786;28;20216;-57
2021/12/22 08:00:40;;;;;;;23.33;15.97;;;-2.90;99.90;;;;;;5055827;28;20559;-61
2021/12/22 08:03:08;;;;;;;27.13;16.87;;;-2.80;99.90;;;;;;5045293;28;20255;-59
2021/12/22 08:05:35;;;;;;;22.97;14.63;;;-2.90;99.90;;;;;;5035469;28;20226;-59
2021/12/22 08:08:02;;;;;;;26.00;15.33;;;-2.90;99.90;;;;;;5035517;28;20701;-59
2021/12/22 08:10:29;;;;;;;21.80;14.10;;;-2.90;99.90;;;;;;5035702;28;20209;-60
2021/12/22 08:12:56;;;;;;;25.17;14.80;;;-2.90;99.90;;;;;;5035553;28;20256;-60
2021/12/22 08:15:24;;;;;;;23.00;13.70;;;-2.90;99.90;;;;;;5035715;28;20206;-62
2021/12/22 08:17:52;;;;;;;22.60;15.40;;;-2.90;99.90;;;;;;5035583;28;20674;-61
2021/12/22 08:20:19;;;;;;;22.03;15.03;;;-2.80;99.90;;;;;;5035562;28;20245;-57
2021/12/22 08:22:46;;;;;;;28.53;15.80;;;-2.70;99.90;;;;;;5035048;28;20671;-57
2021/12/22 08:25:13;;;;;;;31.00;18.13;;;-2.60;99.90;;;;;;5035206;28;20202;-58
2021/12/22 08:27:40;;;;;;;22.70;15.07;;;-2.60;99.90;;;;;;5035618;28;20660;-55
2021/12/22 08:30:08;;;;;;;26.70;15.60;;;-2.50;99.90;;;;;;5035154;28;20268;-55
2021/12/22 08:32:37;;;;;;;28.53;17.00;;;-2.40;99.90;;;;;;5035424;28;20206;-57
2021/12/22 08:35:07;;;;;;;22.40;14.27;;;-2.40;99.90;;;;;;5034845;28;20212;-57
2021/12/22 08:40:34;;;;;;;24.00;14.73;;;-2.30;99.90;;;;;;4954944;29;20295;-61
2021/12/22 08:43:00;;;;;;;21.00;14.50;;;-2.30;99.90;;;;;;4956095;29;20576;-59
2021/12/22 08:45:27;;;;;;;25.40;14.67;;;-2.30;99.90;;;;;;4988843;28;20206;-60
2021/12/22 08:47:55;;;;;;;25.03;15.30;;;-2.30;99.90;;;;;;5033494;28;20210;-61
2021/12/22 08:50:24;;;;;;;20.67;15.30;;;-2.10;99.90;;;;;;5042683;28;20674;-61
2021/12/22 08:52:51;;;;;;;21.40;14.77;;;-2.00;99.90;;;;;;5034521;28;20214;-58
2021/12/22 08:55:18;;;;;;;22.87;14.80;;;-1.90;99.90;;;;;;5034292;28;20202;-58
2021/12/22 08:57:45;;;;;;;23.40;15.53;;;-1.70;99.90;;;;;;5033766;28;20670;-58
2021/12/22 09:00:13;;;;;;;24.90;14.73;;;-1.60;99.90;;;;;;5034769;28;20210;-58
2021/12/22 09:02:40;;;;;;;23.97;14.83;;;-1.60;99.90;;;;;;5034611;28;20213;-58
2021/12/22 09:05:09;;;;;;;22.23;14.87;;;-1.50;99.90;;;;;;5034683;28;20244;-57
2021/12/22 09:07:36;;;;;;;23.93;16.50;;;-1.30;99.90;;;;;;5033943;28;20276;-58
2021/12/22 09:10:05;;;;;;;22.73;15.80;;;-1.20;99.90;;;;;;5034226;28;20209;-61
2021/12/22 09:12:31;;;;;;;20.63;14.40;;;-1.10;99.90;;;;;;5034053;28;20217;-59
2021/12/22 09:14:58;;;;;;;23.73;15.47;;;-1.00;99.90;;;;;;5034780;28;20206;-58
2021/12/22 09:17:25;;;;;;;22.77;15.23;;;-1.00;99.90;;;;;;5034349;28;20772;-59
2021/12/22 09:19:53;;;;;;;25.90;15.90;;;-0.90;99.90;;;;;;5034440;28;20256;-58
2021/12/22 09:22:21;;;;;;;21.30;15.03;;;-0.80;99.90;;;;;;5034076;28;20217;-55
2021/12/22 09:24:48;;;;;;;20.37;15.33;;;-0.70;99.90;;;;;;5034276;28;20260;-59
2021/12/22 09:27:15;;;;;;;23.07;15.00;;;-0.60;99.90;;;;;;5034180;28;20234;-59
2021/12/22 09:29:42;;;;;;;24.03;15.27;;;-0.50;99.90;;;;;;5034457;28;20214;-59
2021/12/22 09:32:12;;;;;;;24.13;15.20;;;-0.40;99.90;;;;;;5033774;28;20309;-58
2021/12/22 09:34:39;;;;;;;24.00;14.90;;;-0.30;99.90;;;;;;5034048;28;20213;-61
2021/12/22 09:37:06;;;;;;;21.90;14.90;;;-0.20;99.90;;;;;;5033851;28;20227;-60
2021/12/22 09:39:34;;;;;;;23.97;16.17;;;0.00;99.90;;;;;;5033617;28;20253;-57
2021/12/22 09:42:01;;;;;;;23.83;16.17;;;0.20;99.90;;;;;;5033756;28;20585;-57
2021/12/22 09:44:31;;;;;;;21.20;14.33;;;0.30;99.90;;;;;;5033948;28;20202;-62
2021/12/22 09:46:58;;;;;;;20.47;14.30;;;0.50;99.90;;;;;;5033772;28;20226;-57
2021/12/22 09:49:37;;;;;;;19.10;14.40;;;0.60;99.90;;;;;;5032836;28;20210;-57
2021/12/22 09:52:19;;;;;;;21.57;14.00;;;0.70;99.90;;;;;;5033202;28;20320;-58
2021/12/22 09:54:48;;;;;;;24.37;15.10;;;0.70;99.90;;;;;;5033764;28;20202;-58
2021/12/22 09:57:17;;;;;;;21.93;15.17;;;0.70;99.90;;;;;;5033177;28;20261;-60
2021/12/22 09:59:45;;;;;;;22.13;15.67;;;0.80;99.90;;;;;;5032926;28;20590;-58
2021/12/22 10:02:13;;;;;;;21.33;15.43;;;0.80;99.90;;;;;;5033036;28;20245;-61
2021/12/22 10:04:39;;;;;;;20.57;14.90;;;0.90;99.90;;;;;;5033441;28;20214;-58
2021/12/22 10:07:08;;;;;;;23.00;16.10;;;1.00;99.90;;;;;;5033457;28;20648;-64
2021/12/22 10:09:43;;;;;;;21.77;13.67;;;1.00;99.90;;;;;;5033656;28;20213;-63
2021/12/22 10:12:16;;;;;;;17.27;12.63;;;1.00;99.90;;;;;;5034039;28;20622;-60
2021/12/22 10:14:49;;;;;;;17.30;13.27;;;1.10;99.90;;;;;;5033212;28;20210;-58
2021/12/22 10:17:28;;;;;;;19.97;13.43;;;1.00;99.90;;;;;;5033467;28;20223;-58
2021/12/22 10:19:57;;;;;;;20.33;13.20;;;1.00;99.90;;;;;;5033116;28;20241;-62
2021/12/22 10:22:30;;;;;;;17.87;13.03;;;1.00;99.90;;;;;;5033998;28;20690;-63
2021/12/22 10:25:08;;;;;;;18.03;13.40;;;1.10;99.90;;;;;;5034217;28;20202;-60
2021/12/22 10:27:37;;;;;;;21.37;14.13;;;1.00;99.90;;;;;;5032989;28;20606;-57
2021/12/22 10:30:23;;;;;;;19.90;12.90;;;1.10;99.90;;;;;;5033005;28;20213;-56
2021/12/22 10:32:50;;;;;;;19.07;12.83;;;1.10;99.90;;;;;;5032694;28;20257;-56
2021/12/22 10:35:18;;;;;;;19.37;13.50;;;1.10;99.90;;;;;;5032740;28;20615;-57
2021/12/22 10:37:45;;;;;;;60.67;26.07;;;1.20;99.90;;;;;;5032523;28;20667;-55
2021/12/22 10:40:23;;;;;;;49.57;25.43;;;1.30;99.90;;;;;;5032830;28;20229;-55
2021/12/22 10:42:51;;;;;;;18.73;12.30;;;1.40;99.90;;;;;;5032219;28;20210;-55
2021/12/22 10:45:19;;;;;;;17.97;12.77;;;1.40;99.90;;;;;;5032455;28;20218;-55
2021/12/22 10:50:35;;;;;;;17.97;12.53;;;1.50;99.90;;;;;;5032058;28;20301;-55
2021/12/22 10:53:02;;;;;;;15.70;11.43;;;1.60;99.90;;;;;;5032565;28;20212;-63
2021/12/22 10:55:38;;;;;;;18.17;12.83;;;1.70;99.90;;;;;;5032686;28;20210;-54
2021/12/22 10:58:18;;;;;;;24.57;12.37;;;1.70;99.90;;;;;;5031811;28;20685;-54
2021/12/22 11:00:45;;;;;;;16.70;12.07;;;1.80;99.90;;;;;;5032096;28;20572;-55
2021/12/22 11:03:14;;;;;;;20.73;12.77;;;1.90;99.90;;;;;;5032070;28;20264;-55
2021/12/22 11:05:45;;;;;;;19.77;13.87;;;1.90;99.90;;;;;;5032537;28;20234;-58
2021/12/22 11:08:19;;;;;;;16.03;12.00;;;2.10;99.90;;;;;;5032051;28;20653;-59
2021/12/22 11:10:46;;;;;;;16.50;12.37;;;2.20;99.90;;;;;;5031976;28;20213;-58
2021/12/22 11:13:20;;;;;;;16.70;12.40;;;2.30;99.90;;;;;;5031663;28;20251;-59
2021/12/22 11:15:47;;;;;;;17.73;13.10;;;2.40;99.90;;;;;;5032169;28;20321;-59
2021/12/22 11:18:26;;;;;;;16.53;11.53;;;2.40;99.90;;;;;;5032006;28;20623;-59
2021/12/22 11:21:13;;;;;;;18.77;12.60;;;2.30;99.90;;;;;;5031924;28;20213;-57
2021/12/22 11:23:40;;;;;;;15.50;12.83;;;2.40;99.90;;;;;;5031644;28;20645;-56
2021/12/22 11:26:07;;;;;;;16.93;12.07;;;2.60;99.90;;;;;;5032217;28;20230;-57
2021/12/22 11:28:35;;;;;;;18.37;12.77;;;2.90;99.90;;;;;;5032030;28;20226;-55
2021/12/22 11:31:04;;;;;;;16.23;11.20;;;3.10;99.90;;;;;;5032132;28;20213;-57
2021/12/22 11:33:32;;;;;;;20.97;15.37;;;3.10;99.90;;;;;;5032174;28;20210;-59
2021/12/22 11:36:00;;;;;;;16.33;12.00;;;3.10;99.90;;;;;;5031907;28;20234;-58
2021/12/22 11:38:29;;;;;;;15.47;11.60;;;3.20;99.90;;;;;;5032518;28;20207;-56
2021/12/22 11:41:08;;;;;;;18.23;12.03;;;3.20;99.90;;;;;;5032013;28;20203;-56
2021/12/22 11:43:37;;;;;;;16.90;11.50;;;3.30;99.90;;;;;;5031780;28;20213;-57
2021/12/22 11:46:04;;;;;;;17.03;11.10;;;3.30;99.90;;;;;;5032084;28;20309;-57
2021/12/22 11:48:32;;;;;;;17.20;11.23;;;3.40;99.90;;;;;;5031826;28;20599;-57
2021/12/22 11:50:58;;;;;;;16.63;12.07;;;3.30;99.90;;;;;;5032073;28;20213;-55
2021/12/22 11:53:25;;;;;;;14.37;10.97;;;3.10;99.90;;;;;;5031923;28;20218;-60
2021/12/22 11:55:55;;;;;;;18.60;11.90;;;3.00;99.90;;;;;;5032160;28;20234;-57
2021/12/22 11:58:24;;;;;;;13.67;10.90;;;2.90;99.90;;;;;;5031814;28;20198;-56
2021/12/22 12:01:08;;;;;;;16.87;11.47;;;2.90;99.90;;;;;;5031961;28;20256;-57
2021/12/22 12:03:37;;;;;;;16.10;11.53;;;3.00;99.90;;;;;;5031538;28;20276;-57
2021/12/22 12:06:09;;;;;;;17.63;11.43;;;3.30;99.90;;;;;;5032043;28;20280;-57
2021/12/22 12:08:39;;;;;;;14.87;11.43;;;3.30;99.90;;;;;;5031885;28;20222;-56
2021/12/22 12:11:06;;;;;;;16.47;11.93;;;3.30;99.90;;;;;;5031710;28;20214;-56
2021/12/22 12:13:43;;;;;;;13.37;11.07;;;3.40;99.90;;;;;;5031267;28;20214;-55
2021/12/22 12:22:17;;;;;;;14.13;10.33;;;3.40;99.90;;;;;;5031587;28;20240;-56
2021/12/22 12:24:49;;;;;;;13.80;10.10;;;3.20;99.90;;;;;;5031862;28;20218;-57
2021/12/22 12:27:45;;;;;;;14.03;10.83;;;3.20;99.90;;;;;;5031718;28;20231;-58
2021/12/22 12:30:43;;;;;;;12.33;9.80;;;3.20;99.90;;;;;;5018830;28;20304;-60
2021/12/22 12:33:14;;;;;;;14.53;11.00;;;3.30;99.90;;;;;;5035452;28;20217;-58
2021/12/22 12:36:00;;;;;;;15.03;10.77;;;3.50;99.90;;;;;;5035224;28;20253;-60
2021/12/22 12:38:31;;;;;;;14.63;10.43;;;3.70;99.90;;;;;;5035273;28;20242;-58
2021/12/22 12:41:17;;;;;;;15.30;10.97;;;3.80;99.90;;;;;;5035453;28;20241;-58
2021/12/22 12:43:59;;;;;;;13.57;10.50;;;3.90;99.90;;;;;;5035084;28;20210;-60
2021/12/22 12:46:29;;;;;;;14.13;10.53;;;4.10;99.90;;;;;;5035625;28;20230;-59
2021/12/22 12:49:30;;;;;;;12.83;10.73;;;4.10;99.90;;;;;;5035022;28;20208;-59
2021/12/22 12:51:59;;;;;;;17.33;11.63;;;4.20;99.90;;;;;;5035463;28;20248;-59